KLKV

Lake County Airport

Lakeview, Oregon, USA
METAR KLKV 160953Z AUTO 17009KT 10SM SCT044 02/M05 A3001 RMK AO2 SLP634 T00221050 FZRANO
Observed Flight Rules
Dec-16 @ 09:53 UTC (48 minutes ago) Visual Flight Rules
Wind Visibility Clouds
170° at 9 knots 10 miles
  • Scattered at 4,400' AGL
Temperatures Readings
Current 2°C / 36°F
Dewpoint -5°C / 23°F
Humidity 60%
Altimeter 30.01" Hg
Pressure 963.4 hPa
Elevation 1441
METAR KLKV 160953Z AUTO 17009KT 10SM SCT044 02/M05 A3001 RMK AO2 SLP634 T00221050 FZRANO
Observed Flight Rules
Dec-16 @ 09:53 UTC
(48 minutes ago)
VFR
Wind Visibility
170° at 9 knots 10 miles
Clouds
  • Scattered at 4,400' AGL
Temperature Dewpoint
2°C / 36°F -5°C / 23°F
Humidity Altimeter Pressure
60% 30.01" Hg 963.4 hPa